sensor_id;sensor_type;location;lat;lon;timestamp;pressure;altitude;pressure_sealevel;temperature;humidity
24422;BME280;12600;53.326;-6.298;2023-03-01T00:01:27;103411.47;;;8.93;65.22
24422;BME280;12600;53.326;-6.298;2023-03-01T00:04:17;103411.84;;;8.97;64.97
24422;BME280;12600;53.326;-6.298;2023-03-01T00:07:06;103393.59;;;8.97;65.32
24422;BME280;12600;53.326;-6.298;2023-03-01T00:09:57;103406.53;;;9.02;65.29
24422;BME280;12600;53.326;-6.298;2023-03-01T00:12:46;103392.91;;;9.02;64.92
24422;BME280;12600;53.326;-6.298;2023-03-01T00:15:39;103385.06;;;9.06;65.14
24422;BME280;12600;53.326;-6.298;2023-03-01T00:18:29;103393.88;;;9.08;65.33
24422;BME280;12600;53.326;-6.298;2023-03-01T00:21:20;103374.63;;;9.03;65.44
24422;BME280;12600;53.326;-6.298;2023-03-01T00:24:10;103387.13;;;9.10;65.52
24422;BME280;12600;53.326;-6.298;2023-03-01T00:27:01;103370.84;;;9.04;65.66
24422;BME280;12600;53.326;-6.298;2023-03-01T00:29:50;103373.84;;;9.14;65.53
24422;BME280;12600;53.326;-6.298;2023-03-01T00:32:41;103381.91;;;9.09;65.93
24422;BME280;12600;53.326;-6.298;2023-03-01T00:35:32;103384.31;;;9.17;65.74
24422;BME280;12600;53.326;-6.298;2023-03-01T00:38:21;103392.00;;;9.20;66.09
24422;BME280;12600;53.326;-6.298;2023-03-01T00:41:14;103373.84;;;9.14;65.89
24422;BME280;12600;53.326;-6.298;2023-03-01T00:44:05;103373.84;;;9.14;67.44
24422;BME280;12600;53.326;-6.298;2023-03-01T00:46:55;103362.84;;;9.20;67.31
24422;BME280;12600;53.326;-6.298;2023-03-01T00:49:45;103350.16;;;9.26;66.95
24422;BME280;12600;53.326;-6.298;2023-03-01T00:52:34;103360.50;;;9.36;67.35
24422;BME280;12600;53.326;-6.298;2023-03-01T00:55:24;103360.00;;;9.27;67.98
24422;BME280;12600;53.326;-6.298;2023-03-01T00:58:14;103363.59;;;9.39;67.88
24422;BME280;12600;53.326;-6.298;2023-03-01T01:01:09;103355.13;;;9.29;68.32
24422;BME280;12600;53.326;-6.298;2023-03-01T01:04:07;103362.53;;;9.40;67.89
24422;BME280;12600;53.326;-6.298;2023-03-01T01:06:58;103357.66;;;9.42;67.56
24422;BME280;12600;53.326;-6.298;2023-03-01T01:09:47;103363.47;;;9.46;66.48
24422;BME280;12600;53.326;-6.298;2023-03-01T01:12:37;103367.75;;;9.42;65.81
24422;BME280;12600;53.326;-6.298;2023-03-01T01:15:26;103362.19;;;9.48;65.61
24422;BME280;12600;53.326;-6.298;2023-03-01T01:18:17;103354.44;;;9.45;64.42
24422;BME280;12600;53.326;-6.298;2023-03-01T01:21:09;103359.47;;;9.48;64.56
24422;BME280;12600;53.326;-6.298;2023-03-01T01:23:59;103366.81;;;9.48;63.87
24422;BME280;12600;53.326;-6.298;2023-03-01T01:26:48;103353.53;;;9.51;64.11
24422;BME280;12600;53.326;-6.298;2023-03-01T01:29:38;103375.94;;;9.53;64.45
24422;BME280;12600;53.326;-6.298;2023-03-01T01:32:27;103358.16;;;9.39;64.81
24422;BME280;12600;53.326;-6.298;2023-03-01T01:35:18;103367.75;;;9.42;64.58
24422;BME280;12600;53.326;-6.298;2023-03-01T01:38:07;103365.16;;;9.47;64.27
24422;BME280;12600;53.326;-6.298;2023-03-01T01:40:57;103365.03;;;9.42;63.63
24422;BME280;12600;53.326;-6.298;2023-03-01T01:43:48;103357.81;;;9.47;63.63
24422;BME280;12600;53.326;-6.298;2023-03-01T01:46:40;103358.25;;;9.44;63.22
24422;BME280;12600;53.326;-6.298;2023-03-01T01:49:35;103349.72;;;9.41;63.04
24422;BME280;12600;53.326;-6.298;2023-03-01T01:52:29;103358.63;;;9.48;62.67
24422;BME280;12600;53.326;-6.298;2023-03-01T01:55:23;103345.44;;;9.45;62.54
24422;BME280;12600;53.326;-6.298;2023-03-01T01:58:19;103345.81;;;9.48;61.87
24422;BME280;12600;53.326;-6.298;2023-03-01T02:01:09;103324.78;;;9.37;61.78
24422;BME280;12600;53.326;-6.298;2023-03-01T02:04:00;103340.94;;;9.50;61.72
24422;BME280;12600;53.326;-6.298;2023-03-01T02:06:55;103329.69;;;9.47;61.57
24422;BME280;12600;53.326;-6.298;2023-03-01T02:09:50;103311.75;;;9.39;61.59
24422;BME280;12600;53.326;-6.298;2023-03-01T02:12:41;103317.22;;;9.51;61.52
24422;BME280;12600;53.326;-6.298;2023-03-01T02:15:33;103299.66;;;9.47;61.47
24422;BME280;12600;53.326;-6.298;2023-03-01T02:18:24;103302.16;;;9.48;61.25
24422;BME280;12600;53.326;-6.298;2023-03-01T02:21:30;103300.50;;;9.47;61.04
24422;BME280;12600;53.326;-6.298;2023-03-01T02:24:34;103290.03;;;9.44;61.04
24422;BME280;12600;53.326;-6.298;2023-03-01T02:27:33;103282.34;;;9.41;61.23
24422;BME280;12600;53.326;-6.298;2023-03-01T02:30:27;103287.91;;;9.46;61.60
24422;BME280;12600;53.326;-6.298;2023-03-01T02:33:17;103275.81;;;9.42;61.08
24422;BME280;12600;53.326;-6.298;2023-03-01T02:36:10;103286.84;;;9.47;61.23
24422;BME280;12600;53.326;-6.298;2023-03-01T02:39:04;103265.38;;;9.39;61.53
24422;BME280;12600;53.326;-6.298;2023-03-01T02:41:55;103277.69;;;9.53;61.62
24422;BME280;12600;53.326;-6.298;2023-03-01T02:44:45;103275.19;;;9.52;61.38
24422;BME280;12600;53.326;-6.298;2023-03-01T02:47:36;103267.50;;;9.49;61.89
24422;BME280;12600;53.326;-6.298;2023-03-01T02:50:51;103262.28;;;9.47;62.08
24422;BME280;12600;53.326;-6.298;2023-03-01T02:53:49;103267.25;;;9.50;61.84
24422;BME280;12600;53.326;-6.298;2023-03-01T02:56:43;103260.00;;;9.44;62.46
24422;BME280;12600;53.326;-6.298;2023-03-01T02:59:39;103262.28;;;9.47;62.64
24422;BME280;12600;53.326;-6.298;2023-03-01T03:02:30;103250.06;;;9.50;62.91
24422;BME280;12600;53.326;-6.298;2023-03-01T03:05:34;103244.72;;;9.43;63.00
24422;BME280;12600;53.326;-6.298;2023-03-01T03:08:23;103253.03;;;9.48;63.17
24422;BME280;12600;53.326;-6.298;2023-03-01T03:11:13;103253.84;;;9.49;63.20
24422;BME280;12600;53.326;-6.298;2023-03-01T03:14:03;103249.72;;;9.46;63.37
24422;BME280;12600;53.326;-6.298;2023-03-01T03:16:53;103248.16;;;9.50;63.36
24422;BME280;12600;53.326;-6.298;2023-03-01T03:19:42;103242.47;;;9.40;63.65
24422;BME280;12600;53.326;-6.298;2023-03-01T03:22:34;103246.75;;;9.48;63.62
24422;BME280;12600;53.326;-6.298;2023-03-01T03:25:24;103229.16;;;9.44;64.06
24422;BME280;12600;53.326;-6.298;2023-03-01T03:28:13;103243.28;;;9.52;63.65
24422;BME280;12600;53.326;-6.298;2023-03-01T03:31:06;103233.69;;;9.50;63.83
24422;BME280;12600;53.326;-6.298;2023-03-01T03:33:56;103235.09;;;9.52;63.73
24422;BME280;12600;53.326;-6.298;2023-03-01T03:36:46;103234.03;;;9.53;63.95
24422;BME280;12600;53.326;-6.298;2023-03-01T03:39:37;103232.38;;;9.52;63.44
24422;BME280;12600;53.326;-6.298;2023-03-01T03:42:26;103228.81;;;9.52;63.70
24422;BME280;12600;53.326;-6.298;2023-03-01T03:45:17;103232.84;;;9.49;63.75
24422;BME280;12600;53.326;-6.298;2023-03-01T03:48:09;103237.72;;;9.47;63.30
24422;BME280;12600;53.326;-6.298;2023-03-01T03:50:58;103227.03;;;9.46;63.65
24422;BME280;12600;53.326;-6.298;2023-03-01T03:53:48;103232.97;;;9.43;63.72
24422;BME280;12600;53.326;-6.298;2023-03-01T03:56:38;103235.47;;;9.44;63.70
24422;BME280;12600;53.326;-6.298;2023-03-01T03:59:28;103235.22;;;9.46;63.46
24422;BME280;12600;53.326;-6.298;2023-03-01T04:02:17;103230.00;;;9.44;63.49
24422;BME280;12600;53.326;-6.298;2023-03-01T04:05:12;103220.75;;;9.45;63.21
24422;BME280;12600;53.326;-6.298;2023-03-01T04:08:02;103220.75;;;9.45;63.37
24422;BME280;12600;53.326;-6.298;2023-03-01T04:10:59;103213.03;;;9.42;63.09
24422;BME280;12600;53.326;-6.298;2023-03-01T04:14:10;103200.00;;;9.33;63.05
24422;BME280;12600;53.326;-6.298;2023-03-01T04:16:59;103215.19;;;9.40;63.27
24422;BME280;12600;53.326;-6.298;2023-03-01T04:19:49;103219.19;;;9.38;62.23
24422;BME280;12600;53.326;-6.298;2023-03-01T04:22:38;103216.72;;;9.36;62.42
24422;BME280;12600;53.326;-6.298;2023-03-01T04:25:28;103191.59;;;9.22;62.11
24422;BME280;12600;53.326;-6.298;2023-03-01T04:28:18;103210.69;;;9.34;62.45
24422;BME280;12600;53.326;-6.298;2023-03-01T04:31:13;103212.34;;;9.35;61.79
24422;BME280;12600;53.326;-6.298;2023-03-01T04:34:04;103212.19;;;9.30;61.29
24422;BME280;12600;53.326;-6.298;2023-03-01T04:36:53;103202.38;;;9.29;61.60
24422;BME280;12600;53.326;-6.298;2023-03-01T04:39:43;103202.84;;;9.26;61.82
24422;BME280;12600;53.326;-6.298;2023-03-01T04:42:33;103207.13;;;9.34;61.78
24422;BME280;12600;53.326;-6.298;2023-03-01T04:45:23;103205.47;;;9.33;61.69
24422;BME280;12600;53.326;-6.298;2023-03-01T04:48:14;103179.81;;;9.22;61.61
24422;BME280;12600;53.326;-6.298;2023-03-01T04:51:04;103197.53;;;9.31;61.95
24422;BME280;12600;53.326;-6.298;2023-03-01T04:53:55;103191.44;;;9.29;61.96
24422;BME280;12600;53.326;-6.298;2023-03-01T04:56:44;103206.41;;;9.27;62.08
24422;BME280;12600;53.326;-6.298;2023-03-01T04:59:34;103202.38;;;9.29;62.03
24422;BME280;12600;53.326;-6.298;2023-03-01T05:02:24;103201.78;;;9.27;62.22
24422;BME280;12600;53.326;-6.298;2023-03-01T05:05:15;103197.16;;;9.28;62.52
24422;BME280;12600;53.326;-6.298;2023-03-01T05:08:07;103188.00;;;9.22;62.67
24422;BME280;12600;53.326;-6.298;2023-03-01T05:10:56;103191.00;;;9.32;62.43
24422;BME280;12600;53.326;-6.298;2023-03-01T05:13:46;103193.09;;;9.30;62.42
24422;BME280;12600;53.326;-6.298;2023-03-01T05:16:36;103188.38;;;9.25;62.64
24422;BME280;12600;53.326;-6.298;2023-03-01T05:19:25;103179.25;;;9.20;62.58
24422;BME280;12600;53.326;-6.298;2023-03-01T05:22:16;103190.63;;;9.29;62.41
24422;BME280;12600;53.326;-6.298;2023-03-01T05:25:07;103186.81;;;9.30;62.44
24422;BME280;12600;53.326;-6.298;2023-03-01T05:27:56;103185.16;;;9.29;62.51
24422;BME280;12600;53.326;-6.298;2023-03-01T05:30:46;103189.69;;;9.23;62.76
24422;BME280;12600;53.326;-6.298;2023-03-01T05:33:36;103173.78;;;9.20;62.96
24422;BME280;12600;53.326;-6.298;2023-03-01T05:36:25;103180.44;;;9.24;63.37
24422;BME280;12600;53.326;-6.298;2023-03-01T05:39:17;103177.09;;;9.22;63.12
24422;BME280;12600;53.326;-6.298;2023-03-01T05:42:11;103177.09;;;9.22;63.19
24422;BME280;12600;53.326;-6.298;2023-03-01T05:45:00;103181.72;;;9.21;63.60
24422;BME280;12600;53.326;-6.298;2023-03-01T05:47:50;103171.66;;;9.22;63.81
24422;BME280;12600;53.326;-6.298;2023-03-01T05:50:52;103182.56;;;9.22;64.01
24422;BME280;12600;53.326;-6.298;2023-03-01T05:53:45;103181.50;;;9.23;63.93
24422;BME280;12600;53.326;-6.298;2023-03-01T05:56:37;103190.97;;;9.20;64.85
24422;BME280;12600;53.326;-6.298;2023-03-01T05:59:26;103191.44;;;9.06;67.08
24422;BME280;12600;53.326;-6.298;2023-03-01T06:02:15;103192.28;;;9.06;66.66
24422;BME280;12600;53.326;-6.298;2023-03-01T06:05:06;103200.47;;;9.06;67.12
24422;BME280;12600;53.326;-6.298;2023-03-01T06:07:59;103210.19;;;9.02;68.62
24422;BME280;12600;53.326;-6.298;2023-03-01T06:10:49;103207.00;;;8.93;68.35
24422;BME280;12600;53.326;-6.298;2023-03-01T06:13:41;103214.44;;;8.98;68.40
24422;BME280;12600;53.326;-6.298;2023-03-01T06:16:30;103214.94;;;8.83;69.23
24422;BME280;12600;53.326;-6.298;2023-03-01T06:19:20;103214.44;;;8.86;69.52
24422;BME280;12600;53.326;-6.298;2023-03-01T06:22:09;103213.28;;;8.82;69.77
24422;BME280;12600;53.326;-6.298;2023-03-01T06:24:58;103218.00;;;8.87;69.78
24422;BME280;12600;53.326;-6.298;2023-03-01T06:27:49;103215.38;;;8.80;70.03
24422;BME280;12600;53.326;-6.298;2023-03-01T06:30:41;103218.81;;;8.87;70.22
24422;BME280;12600;53.326;-6.298;2023-03-01T06:33:33;103221.44;;;8.82;69.83
24422;BME280;12600;53.326;-6.298;2023-03-01T06:36:26;103222.03;;;8.84;69.71
24422;BME280;12600;53.326;-6.298;2023-03-01T06:39:15;103215.38;;;8.80;69.47
24422;BME280;12600;53.326;-6.298;2023-03-01T06:42:05;103205.28;;;8.81;69.12
24422;BME280;12600;53.326;-6.298;2023-03-01T06:44:56;103212.06;;;8.90;69.47
24422;BME280;12600;53.326;-6.298;2023-03-01T06:47:47;103207.09;;;8.87;69.26
24422;BME280;12600;53.326;-6.298;2023-03-01T06:50:36;103204.13;;;8.88;69.09
24422;BME280;12600;53.326;-6.298;2023-03-01T06:53:26;103206.63;;;8.90;69.05
24422;BME280;12600;53.326;-6.298;2023-03-01T06:56:15;103196.28;;;8.80;69.19
24422;BME280;12600;53.326;-6.298;2023-03-01T06:59:05;103204.81;;;8.72;69.78
24422;BME280;12600;53.326;-6.298;2023-03-01T07:01:54;103212.16;;;8.72;70.37
24422;BME280;12600;53.326;-6.298;2023-03-01T07:04:49;103199.84;;;8.69;70.56
24422;BME280;12600;53.326;-6.298;2023-03-01T07:07:38;103210.25;;;8.72;70.76
24422;BME280;12600;53.326;-6.298;2023-03-01T07:10:27;103202.81;;;8.67;71.10
24422;BME280;12600;53.326;-6.298;2023-03-01T07:13:17;103213.00;;;8.72;71.32
24422;BME280;12600;53.326;-6.298;2023-03-01T07:16:07;103213.00;;;8.72;71.52
24422;BME280;12600;53.326;-6.298;2023-03-01T07:18:56;103214.06;;;8.71;71.74
24422;BME280;12600;53.326;-6.298;2023-03-01T07:21:49;103215.38;;;8.68;71.38
24422;BME280;12600;53.326;-6.298;2023-03-01T07:24:38;103212.16;;;8.60;71.34
24422;BME280;12600;53.326;-6.298;2023-03-01T07:27:34;103212.88;;;8.67;70.99
24422;BME280;12600;53.326;-6.298;2023-03-01T07:30:23;103218.19;;;8.62;71.27
24422;BME280;12600;53.326;-6.298;2023-03-01T07:33:14;103226.59;;;8.60;71.27
24422;BME280;12600;53.326;-6.298;2023-03-01T07:36:05;103213.81;;;8.61;70.97
24422;BME280;12600;53.326;-6.298;2023-03-01T07:38:55;103223.53;;;8.68;70.76
24422;BME280;12600;53.326;-6.298;2023-03-01T07:41:45;103215.59;;;8.67;71.00
24422;BME280;12600;53.326;-6.298;2023-03-01T07:44:35;103222.81;;;8.73;70.69
24422;BME280;12600;53.326;-6.298;2023-03-01T07:47:24;103213.47;;;8.69;70.49
24422;BME280;12600;53.326;-6.298;2023-03-01T07:50:13;103221.53;;;8.76;70.63
24422;BME280;12600;53.326;-6.298;2023-03-01T07:53:03;103219.50;;;8.71;70.35
24422;BME280;12600;53.326;-6.298;2023-03-01T07:56:03;103208.13;;;8.74;70.09
24422;BME280;12600;53.326;-6.298;2023-03-01T07:58:53;103204.47;;;8.68;69.69
24422;BME280;12600;53.326;-6.298;2023-03-01T08:01:42;103215.03;;;8.77;69.70
24422;BME280;12600;53.326;-6.298;2023-03-01T08:04:32;103207.44;;;8.79;69.65
24422;BME280;12600;53.326;-6.298;2023-03-01T08:07:21;103220.38;;;8.83;69.26
24422;BME280;12600;53.326;-6.298;2023-03-01T08:10:11;103219.31;;;8.84;68.75
24422;BME280;12600;53.326;-6.298;2023-03-01T08:13:02;103220.72;;;8.87;68.74
24422;BME280;12600;53.326;-6.298;2023-03-01T08:15:52;103223.84;;;8.90;68.69
24422;BME280;12600;53.326;-6.298;2023-03-01T08:18:41;103221.56;;;8.87;68.26
24422;BME280;12600;53.326;-6.298;2023-03-01T08:21:32;103219.22;;;8.91;68.29
24422;BME280;12600;53.326;-6.298;2023-03-01T08:24:22;103225.00;;;8.94;67.46
24422;BME280;12600;53.326;-6.298;2023-03-01T08:27:12;103228.06;;;8.98;67.78
24422;BME280;12600;53.326;-6.298;2023-03-01T08:30:04;103216.69;;;8.89;66.41
24422;BME280;12600;53.326;-6.298;2023-03-01T08:32:54;103220.03;;;9.03;67.24
24422;BME280;12600;53.326;-6.298;2023-03-01T08:35:43;103217.41;;;8.96;66.96
24422;BME280;12600;53.326;-6.298;2023-03-01T08:38:33;103212.56;;;8.99;66.34
24422;BME280;12600;53.326;-6.298;2023-03-01T08:41:23;103220.16;;;9.08;66.03
24422;BME280;12600;53.326;-6.298;2023-03-01T08:44:14;103229.28;;;9.14;66.29
24422;BME280;12600;53.326;-6.298;2023-03-01T08:47:06;103222.53;;;9.16;66.21
24422;BME280;12600;53.326;-6.298;2023-03-01T08:49:55;103229.53;;;9.12;65.96
24422;BME280;12600;53.326;-6.298;2023-03-01T08:52:45;103239.75;;;9.17;65.92
24422;BME280;12600;53.326;-6.298;2023-03-01T08:55:34;103233.44;;;9.16;65.72
24422;BME280;12600;53.326;-6.298;2023-03-01T08:58:23;103238.09;;;9.16;65.90
24422;BME280;12600;53.326;-6.298;2023-03-01T09:01:15;103236.63;;;9.02;65.93
24422;BME280;12600;53.326;-6.298;2023-03-01T09:04:06;103234.38;;;8.99;66.29
24422;BME280;12600;53.326;-6.298;2023-03-01T09:06:55;103243.94;;;8.89;66.27
24422;BME280;12600;53.326;-6.298;2023-03-01T09:09:44;103237.31;;;8.85;67.02
24422;BME280;12600;53.326;-6.298;2023-03-01T09:12:33;103232.34;;;8.82;67.45
24422;BME280;12600;53.326;-6.298;2023-03-01T09:15:23;103243.38;;;8.87;67.24
24422;BME280;12600;53.326;-6.298;2023-03-01T09:18:12;103242.53;;;8.75;69.13
24422;BME280;12600;53.326;-6.298;2023-03-01T09:21:05;103239.91;;;8.80;70.41
24422;BME280;12600;53.326;-6.298;2023-03-01T09:23:57;103228.06;;;8.86;70.15
24422;BME280;12600;53.326;-6.298;2023-03-01T09:26:47;103241.50;;;9.00;69.98
24422;BME280;12600;53.326;-6.298;2023-03-01T09:29:38;103218.38;;;8.90;69.92
24422;BME280;12600;53.326;-6.298;2023-03-01T09:32:29;103236.25;;;8.98;69.47
24422;BME280;12600;53.326;-6.298;2023-03-01T09:35:19;103222.53;;;8.93;68.90
24422;BME280;12600;53.326;-6.298;2023-03-01T09:38:12;103232.84;;;9.03;68.65
24422;BME280;12600;53.326;-6.298;2023-03-01T09:41:02;103231.91;;;9.09;68.78
24422;BME280;12600;53.326;-6.298;2023-03-01T09:43:53;103233.56;;;9.10;68.42
24422;BME280;12600;53.326;-6.298;2023-03-01T09:46:46;103239.00;;;9.10;67.88
24422;BME280;12600;53.326;-6.298;2023-03-01T09:49:39;103234.03;;;9.07;67.25
24422;BME280;12600;53.326;-6.298;2023-03-01T09:52:37;103236.75;;;9.18;66.93
24422;BME280;12600;53.326;-6.298;2023-03-01T09:55:34;103231.53;;;9.29;66.78
24422;BME280;12600;53.326;-6.298;2023-03-01T09:58:41;103231.81;;;9.39;67.27
24422;BME280;12600;53.326;-6.298;2023-03-01T10:01:40;103236.53;;;9.43;67.70
24422;BME280;12600;53.326;-6.298;2023-03-01T10:04:43;103231.19;;;9.37;67.58
24422;BME280;12600;53.326;-6.298;2023-03-01T10:07:44;103237.00;;;9.52;67.24
24422;BME280;12600;53.326;-6.298;2023-03-01T10:10:39;103229.03;;;9.62;66.96
24422;BME280;12600;53.326;-6.298;2023-03-01T10:13:41;103232.13;;;9.66;66.71
24422;BME280;12600;53.326;-6.298;2023-03-01T10:16:46;103233.41;;;9.75;66.40
24422;BME280;12600;53.326;-6.298;2023-03-01T10:19:40;103217.22;;;9.85;66.39
24422;BME280;12600;53.326;-6.298;2023-03-01T10:22:31;103228.53;;;9.89;65.15
24422;BME280;12600;53.326;-6.298;2023-03-01T10:25:45;103226.69;;;9.94;64.65
24422;BME280;12600;53.326;-6.298;2023-03-01T10:28:50;103212.09;;;10.00;63.67
24422;BME280;12600;53.326;-6.298;2023-03-01T10:31:45;103213.59;;;10.08;63.41
24422;BME280;12600;53.326;-6.298;2023-03-01T10:34:36;103215.63;;;10.13;63.06
24422;BME280;12600;53.326;-6.298;2023-03-01T10:37:25;103206.69;;;10.17;63.39
24422;BME280;12600;53.326;-6.298;2023-03-01T10:40:16;103219.41;;;10.52;63.44
24422;BME280;12600;53.326;-6.298;2023-03-01T10:43:12;103226.38;;;11.27;64.60
24422;BME280;12600;53.326;-6.298;2023-03-01T10:46:01;103210.81;;;11.88;63.36
24422;BME280;12600;53.326;-6.298;2023-03-01T10:49:07;103208.88;;;12.10;61.32
24422;BME280;12600;53.326;-6.298;2023-03-01T10:52:19;103197.41;;;12.13;61.48
24422;BME280;12600;53.326;-6.298;2023-03-01T10:55:26;103205.31;;;12.10;60.16
24422;BME280;12600;53.326;-6.298;2023-03-01T10:58:21;103193.16;;;12.00;59.24
24422;BME280;12600;53.326;-6.298;2023-03-01T11:01:27;103202.75;;;12.03;57.49
24422;BME280;12600;53.326;-6.298;2023-03-01T11:04:17;103192.97;;;12.07;58.34
24422;BME280;12600;53.326;-6.298;2023-03-01T11:07:06;103202.25;;;12.06;57.38
24422;BME280;12600;53.326;-6.298;2023-03-01T11:09:56;103204.47;;;12.09;56.57
24422;BME280;12600;53.326;-6.298;2023-03-01T11:12:45;103190.66;;;11.99;54.62
24422;BME280;12600;53.326;-6.298;2023-03-01T11:15:36;103186.94;;;12.10;54.93
24422;BME280;12600;53.326;-6.298;2023-03-01T11:18:26;103183.25;;;12.21;55.85
24422;BME280;12600;53.326;-6.298;2023-03-01T11:21:36;103179.19;;;12.02;54.61
24422;BME280;12600;53.326;-6.298;2023-03-01T11:24:41;103185.47;;;12.24;55.17
24422;BME280;12600;53.326;-6.298;2023-03-01T11:27:34;103188.16;;;12.46;54.39
24422;BME280;12600;53.326;-6.298;2023-03-01T11:30:31;103172.69;;;12.67;54.58
24422;BME280;12600;53.326;-6.298;2023-03-01T11:33:35;103174.72;;;12.77;54.25
24422;BME280;12600;53.326;-6.298;2023-03-01T11:36:32;103183.78;;;12.77;53.98
24422;BME280;12600;53.326;-6.298;2023-03-01T11:39:30;103172.75;;;12.72;53.56
24422;BME280;12600;53.326;-6.298;2023-03-01T11:42:28;103169.22;;;12.77;53.25
24422;BME280;12600;53.326;-6.298;2023-03-01T11:45:24;103165.75;;;12.54;52.81
24422;BME280;12600;53.326;-6.298;2023-03-01T11:48:44;103174.47;;;12.19;52.74
24422;BME280;12600;53.326;-6.298;2023-03-01T11:51:48;103159.72;;;12.25;53.76
24422;BME280;12600;53.326;-6.298;2023-03-01T11:54:54;103155.00;;;12.48;53.88
24422;BME280;12600;53.326;-6.298;2023-03-01T11:58:07;103149.28;;;12.86;53.58
24422;BME280;12600;53.326;-6.298;2023-03-01T12:01:15;103152.91;;;13.34;51.98
24422;BME280;12600;53.326;-6.298;2023-03-01T12:04:30;103153.41;;;13.99;52.52
24422;BME280;12600;53.326;-6.298;2023-03-01T12:07:36;103153.72;;;15.15;52.23
24422;BME280;12600;53.326;-6.298;2023-03-01T12:10:35;103140.56;;;16.26;50.39
24422;BME280;12600;53.326;-6.298;2023-03-01T12:14:09;103145.59;;;16.53;44.32
24422;BME280;12600;53.326;-6.298;2023-03-01T12:17:24;103127.97;;;17.06;46.53
24422;BME280;12600;53.326;-6.298;2023-03-01T12:20:30;103130.56;;;17.46;45.22
24422;BME280;12600;53.326;-6.298;2023-03-01T12:27:04;103119.19;;;17.71;42.40
24422;BME280;12600;53.326;-6.298;2023-03-01T12:30:19;103103.44;;;18.09;41.06
24422;BME280;12600;53.326;-6.298;2023-03-01T12:33:22;103096.22;;;18.27;39.79
24422;BME280;12600;53.326;-6.298;2023-03-01T12:37:02;103082.75;;;18.39;39.28
24422;BME280;12600;53.326;-6.298;2023-03-01T12:40:22;103083.25;;;18.74;38.74
24422;BME280;12600;53.326;-6.298;2023-03-01T12:43:27;103084.19;;;18.51;38.86
24422;BME280;12600;53.326;-6.298;2023-03-01T12:46:32;103068.09;;;18.53;39.95
24422;BME280;12600;53.326;-6.298;2023-03-01T12:49:26;103069.31;;;18.79;38.91
24422;BME280;12600;53.326;-6.298;2023-03-01T12:52:25;103050.03;;;19.15;38.99
24422;BME280;12600;53.326;-6.298;2023-03-01T12:55:27;103057.50;;;19.42;37.48
24422;BME280;12600;53.326;-6.298;2023-03-01T12:58:27;103054.34;;;19.08;36.57
24422;BME280;12600;53.326;-6.298;2023-03-01T13:01:42;103052.19;;;18.91;37.59
24422;BME280;12600;53.326;-6.298;2023-03-01T13:04:51;103047.22;;;18.28;38.07
24422;BME280;12600;53.326;-6.298;2023-03-01T13:07:53;103045.09;;;17.73;39.28
24422;BME280;12600;53.326;-6.298;2023-03-01T13:10:48;103029.88;;;17.52;40.18
24422;BME280;12600;53.326;-6.298;2023-03-01T13:13:39;103031.81;;;17.32;40.21
24422;BME280;12600;53.326;-6.298;2023-03-01T13:16:41;103024.72;;;17.26;40.77
24422;BME280;12600;53.326;-6.298;2023-03-01T13:19:32;103011.88;;;17.54;40.79
24422;BME280;12600;53.326;-6.298;2023-03-01T13:22:32;103012.09;;;17.58;39.76
24422;BME280;12600;53.326;-6.298;2023-03-01T13:25:32;102994.81;;;17.10;39.67
24422;BME280;12600;53.326;-6.298;2023-03-01T13:28:51;103003.00;;;16.43;40.03
24422;BME280;12600;53.326;-6.298;2023-03-01T13:31:59;103002.38;;;15.88;41.34
24422;BME280;12600;53.326;-6.298;2023-03-01T13:34:57;103004.31;;;15.87;42.00
24422;BME280;12600;53.326;-6.298;2023-03-01T13:37:47;103003.75;;;16.25;41.82
24422;BME280;12600;53.326;-6.298;2023-03-01T13:41:00;102995.47;;;16.54;40.43
24422;BME280;12600;53.326;-6.298;2023-03-01T13:43:50;102981.78;;;16.91;40.49
24422;BME280;12600;53.326;-6.298;2023-03-01T13:46:40;102988.28;;;17.43;40.11
24422;BME280;12600;53.326;-6.298;2023-03-01T13:49:43;102985.47;;;18.00;39.22
24422;BME280;12600;53.326;-6.298;2023-03-01T13:52:38;102977.59;;;17.74;38.99
24422;BME280;12600;53.326;-6.298;2023-03-01T13:55:34;103006.81;;;17.00;39.57
24422;BME280;12600;53.326;-6.298;2023-03-01T13:58:29;103000.31;;;16.38;40.73
24422;BME280;12600;53.326;-6.298;2023-03-01T14:01:27;102988.25;;;15.65;41.80
24422;BME280;12600;53.326;-6.298;2023-03-01T14:04:22;102970.69;;;14.97;43.38
24422;BME280;12600;53.326;-6.298;2023-03-01T14:07:18;102987.06;;;14.58;44.65
24422;BME280;12600;53.326;-6.298;2023-03-01T14:10:11;102978.81;;;14.58;45.93
24422;BME280;12600;53.326;-6.298;2023-03-01T14:13:17;102962.19;;;14.93;45.32
24422;BME280;12600;53.326;-6.298;2023-03-01T14:16:23;102965.56;;;15.34;44.89
24422;BME280;12600;53.326;-6.298;2023-03-01T14:19:21;102964.38;;;14.96;44.93
24422;BME280;12600;53.326;-6.298;2023-03-01T14:22:23;102961.78;;;14.35;45.97
24422;BME280;12600;53.326;-6.298;2023-03-01T14:25:24;102976.97;;;13.97;46.72
24422;BME280;12600;53.326;-6.298;2023-03-01T14:28:18;102967.63;;;13.73;46.76
24422;BME280;12600;53.326;-6.298;2023-03-01T14:31:39;102961.00;;;13.48;47.04
24422;BME280;12600;53.326;-6.298;2023-03-01T14:34:44;102964.81;;;13.42;46.85
24422;BME280;12600;53.326;-6.298;2023-03-01T14:37:35;102965.13;;;13.51;47.26
24422;BME280;12600;53.326;-6.298;2023-03-01T14:40:27;102955.22;;;13.70;46.43
24422;BME280;12600;53.326;-6.298;2023-03-01T14:43:22;102955.25;;;14.00;46.35
24422;BME280;12600;53.326;-6.298;2023-03-01T14:46:23;102951.09;;;14.08;45.02
24422;BME280;12600;53.326;-6.298;2023-03-01T14:49:19;102944.50;;;14.09;45.18
24422;BME280;12600;53.326;-6.298;2023-03-01T14:52:20;102940.41;;;13.96;44.11
24422;BME280;12600;53.326;-6.298;2023-03-01T14:55:17;102941.50;;;13.90;44.30
24422;BME280;12600;53.326;-6.298;2023-03-01T14:58:15;102944.81;;;13.67;44.30
24422;BME280;12600;53.326;-6.298;2023-03-01T15:01:07;102943.16;;;13.61;44.22
24422;BME280;12600;53.326;-6.298;2023-03-01T15:04:00;102940.38;;;13.40;44.96
24422;BME280;12600;53.326;-6.298;2023-03-01T15:06:52;102927.75;;;13.34;45.59
24422;BME280;12600;53.326;-6.298;2023-03-01T15:09:42;102922.75;;;13.21;46.58
24422;BME280;12600;53.326;-6.298;2023-03-01T15:12:39;102919.97;;;13.11;47.45